Terminal Aerodrome Forecast
Issued by NWS

Home | Current Version | Previous Version | Text Only | Print | Product List | Glossary On
Versions: 1 2 3 4 5 6 7 8 9 10 11 12 13 14 15 16
266
FTUS46 KSTO 242028 AAA
TAFSCK
TAF AMD
KSCK 242028Z 2420/2518 14010KT 6SM -RA BR OVC050
     FM250200 15009KT P6SM -SHRA OVC040
     FM250700 17005KT P6SM OVC050=

USA.gov is the U.S. government's official web portal to all federal, state and local government web resources and services.